Time;durP1;ratioP1;P1;durP2;ratioP2;P2;SDS_P1;SDS_P2;PMS_P1;PMS_P2;Temp;Humidity;BMP_temperature;BMP_pressure;BME280_temperature;BME280_humidity;BME280_pressure;Samples;Min_cycle;Max_cycle;Signal;HPM_P1;HPM_P2
2023/09/28 00:01:46;;;;;;;2.75;1.58;;;21.70;91.10;;;;;;5053371;28;20040;-84
2023/09/28 00:04:11;;;;;;;2.33;1.55;;;21.60;91.00;;;;;;5052737;28;20187;-85
2023/09/28 00:06:37;;;;;;;2.75;1.58;;;21.70;90.90;;;;;;5053261;28;20466;-84
2023/09/28 00:09:03;;;;;;;2.08;1.67;;;21.70;90.90;;;;;;5053048;28;20031;-83
2023/09/28 00:11:29;;;;;;;3.42;1.38;;;21.70;90.90;;;;;;5053229;28;20037;-85
2023/09/28 00:13:55;;;;;;;2.55;1.60;;;21.70;90.90;;;;;;5053002;28;20079;-83
2023/09/28 00:16:20;;;;;;;3.50;1.65;;;21.70;90.90;;;;;;5051081;28;20403;-82
2023/09/28 00:18:46;;;;;;;2.03;1.30;;;21.60;90.70;;;;;;5052883;28;20025;-83
2023/09/28 00:21:12;;;;;;;1.98;1.45;;;21.70;90.70;;;;;;5052785;28;20063;-83
2023/09/28 00:23:37;;;;;;;3.35;1.50;;;21.70;90.90;;;;;;5053122;28;20091;-83
2023/09/28 00:26:03;;;;;;;2.97;1.35;;;21.70;91.00;;;;;;5053219;28;20192;-82
2023/09/28 00:28:28;;;;;;;2.45;1.73;;;21.70;91.30;;;;;;5051389;28;20123;-84
2023/09/28 00:30:55;;;;;;;3.08;1.52;;;21.70;90.80;;;;;;5051741;28;20120;-85
2023/09/28 00:33:20;;;;;;;3.55;2.03;;;21.60;90.70;;;;;;5052780;28;20100;-85
2023/09/28 00:35:46;;;;;;;3.13;1.70;;;21.60;90.80;;;;;;5052891;28;20469;-84
2023/09/28 00:38:12;;;;;;;2.83;1.33;;;21.60;90.70;;;;;;5052661;28;20489;-84
2023/09/28 00:40:41;;;;;;;2.30;1.40;;;21.50;90.70;;;;;;5052854;28;20466;-85
2023/09/28 00:43:07;;;;;;;2.03;1.33;;;21.60;90.50;;;;;;5055898;28;20033;-84
2023/09/28 00:45:33;;;;;;;2.15;1.40;;;21.60;90.50;;;;;;5056937;28;20484;-86
2023/09/28 00:48:04;;;;;;;3.97;1.40;;;21.60;90.50;;;;;;5056531;28;20083;-85
2023/09/28 00:50:32;;;;;;;2.72;1.52;;;21.50;90.70;;;;;;5055250;28;20112;-87
2023/09/28 00:53:01;;;;;;;5.22;1.80;;;21.50;90.80;;;;;;5056321;28;20481;-86
2023/09/28 00:55:27;;;;;;;2.88;1.50;;;21.50;90.60;;;;;;5056454;28;20036;-86
2023/09/28 00:57:57;;;;;;;7.80;1.88;;;21.50;90.50;;;;;;5056359;28;20063;-86
2023/09/28 01:00:26;;;;;;;4.28;1.85;;;21.50;90.50;;;;;;5054912;28;20033;-85
2023/09/28 01:02:55;;;;;;;2.72;1.55;;;21.40;90.50;;;;;;5055169;28;20048;-85
2023/09/28 01:05:22;;;;;;;5.35;2.03;;;21.50;90.50;;;;;;5055206;28;20373;-85
2023/09/28 01:07:48;;;;;;;3.67;1.77;;;21.40;90.50;;;;;;5056267;28;20021;-85
2023/09/28 01:10:20;;;;;;;3.03;1.90;;;21.40;90.50;;;;;;5056342;28;20029;-85
2023/09/28 01:12:47;;;;;;;2.92;1.92;;;21.30;90.60;;;;;;5054820;28;20456;-85
2023/09/28 01:15:13;;;;;;;3.67;1.88;;;21.30;90.70;;;;;;5038435;28;20043;-85
2023/09/28 01:17:39;;;;;;;3.95;2.00;;;21.30;90.70;;;;;;5056099;28;20036;-85
2023/09/28 01:20:51;;;;;;;4.13;2.30;;;21.30;90.70;;;;;;5056485;28;20079;-85
2023/09/28 01:22:53;;;;;;;2.28;1.83;;;21.20;90.70;;;;;;5052858;28;20037;-85
2023/09/28 01:25:19;;;;;;;2.97;2.20;;;21.20;90.80;;;;;;5057170;28;20053;-85
2023/09/28 01:27:46;;;;;;;3.83;1.77;;;21.20;90.80;;;;;;5054890;28;20079;-86
2023/09/28 01:30:13;;;;;;;3.45;1.80;;;21.20;90.90;;;;;;5054694;28;20025;-85
2023/09/28 01:32:39;;;;;;;2.40;1.50;;;21.20;90.90;;;;;;5055994;28;20078;-85
2023/09/28 01:35:06;;;;;;;3.80;2.15;;;21.20;90.90;;;;;;5054535;28;20090;-85
2023/09/28 01:37:57;;;;;;;3.75;2.10;;;21.20;91.00;;;;;;5054726;28;20037;-85
2023/09/28 01:40:23;;;;;;;4.65;2.40;;;21.20;90.90;;;;;;5044070;28;20494;-85
2023/09/28 01:42:48;;;;;;;3.72;2.00;;;21.20;90.90;;;;;;5055347;28;20064;-85
2023/09/28 01:45:15;;;;;;;3.78;1.70;;;21.20;90.90;;;;;;5055749;28;20059;-85
2023/09/28 01:47:40;;;;;;;3.10;2.15;;;21.20;91.00;;;;;;5037425;28;20061;-84
2023/09/28 01:50:08;;;;;;;5.50;1.88;;;21.10;91.10;;;;;;5054290;28;20473;-84
2023/09/28 01:52:34;;;;;;;2.05;1.60;;;21.10;91.10;;;;;;5054944;28;20162;-84
2023/09/28 01:55:00;;;;;;;2.88;2.40;;;21.10;91.20;;;;;;5054377;28;20489;-86
2023/09/28 01:57:25;;;;;;;4.15;2.08;;;21.10;91.30;;;;;;5055478;28;20040;-85
2023/09/28 01:59:51;;;;;;;1.85;1.58;;;21.10;91.30;;;;;;5054087;28;20032;-85
2023/09/28 02:02:16;;;;;;;7.15;2.30;;;21.10;91.20;;;;;;5055368;28;20110;-85
2023/09/28 02:04:43;;;;;;;5.43;2.08;;;21.20;91.30;;;;;;5053700;28;20067;-83
2023/09/28 02:07:09;;;;;;;3.60;1.80;;;21.10;91.30;;;;;;5053987;28;20461;-83
2023/09/28 02:09:35;;;;;;;3.42;2.03;;;21.10;91.40;;;;;;5053516;28;20108;-83
2023/09/28 02:12:02;;;;;;;2.58;1.75;;;21.10;91.40;;;;;;5055177;28;20064;-83
2023/09/28 02:14:27;;;;;;;2.83;1.70;;;21.00;91.50;;;;;;5055393;28;20028;-83
2023/09/28 02:16:53;;;;;;;2.40;1.73;;;21.10;91.60;;;;;;5053455;28;20055;-83
2023/09/28 02:19:19;;;;;;;4.63;1.95;;;21.10;91.60;;;;;;5053543;28;20049;-84
2023/09/28 02:21:46;;;;;;;4.50;1.92;;;21.10;91.60;;;;;;5054691;28;20450;-84
2023/09/28 02:24:12;;;;;;;3.95;2.00;;;21.10;91.60;;;;;;5053396;28;20037;-86
2023/09/28 02:26:38;;;;;;;5.20;1.75;;;21.10;91.60;;;;;;5053545;28;20473;-85
2023/09/28 02:29:04;;;;;;;3.03;2.08;;;21.10;91.60;;;;;;5053618;28;20025;-84
2023/09/28 02:31:31;;;;;;;2.13;1.63;;;21.10;91.60;;;;;;5054503;28;20029;-84
2023/09/28 02:33:57;;;;;;;2.50;1.83;;;21.10;91.70;;;;;;5054727;28;20036;-85
2023/09/28 02:36:22;;;;;;;5.38;2.00;;;21.10;91.70;;;;;;5053170;28;20028;-84
2023/09/28 02:38:48;;;;;;;3.95;2.17;;;21.10;91.70;;;;;;5054684;28;20040;-84
2023/09/28 02:41:20;;;;;;;5.00;2.35;;;21.10;91.70;;;;;;5054226;28;20036;-84
2023/09/28 02:43:46;;;;;;;3.25;2.10;;;21.10;91.70;;;;;;5054447;28;20037;-84
2023/09/28 02:46:13;;;;;;;4.07;2.13;;;21.00;91.70;;;;;;5054050;28;20036;-84
2023/09/28 02:48:39;;;;;;;4.38;1.88;;;21.00;91.80;;;;;;5053338;28;20029;-84
2023/09/28 02:51:07;;;;;;;3.80;2.30;;;21.00;91.90;;;;;;5054418;28;20037;-83
2023/09/28 02:53:33;;;;;;;4.45;2.22;;;21.00;91.90;;;;;;5054236;28;20025;-84
2023/09/28 02:55:59;;;;;;;6.25;2.13;;;21.00;92.00;;;;;;5054176;28;20028;-85
2023/09/28 02:58:25;;;;;;;5.57;2.00;;;21.00;92.10;;;;;;5054053;28;20032;-84
2023/09/28 03:00:56;;;;;;;3.28;2.00;;;21.00;92.10;;;;;;5052713;28;20068;-84
2023/09/28 03:03:23;;;;;;;2.47;1.67;;;20.90;92.10;;;;;;5053954;28;20029;-83
2023/09/28 03:05:51;;;;;;;4.07;1.90;;;20.90;92.20;;;;;;5053748;28;20036;-83
2023/09/28 03:08:17;;;;;;;4.18;1.77;;;20.90;92.20;;;;;;5052773;28;20029;-84
2023/09/28 03:10:44;;;;;;;4.20;1.95;;;20.90;92.20;;;;;;5053578;28;20033;-83
2023/09/28 03:13:11;;;;;;;2.78;1.80;;;20.90;92.30;;;;;;5052672;28;20028;-83
2023/09/28 03:15:40;;;;;;;4.55;2.13;;;20.90;92.30;;;;;;5053842;28;20036;-82
2023/09/28 03:18:06;;;;;;;4.38;2.28;;;20.90;92.40;;;;;;5053394;28;20492;-83
2023/09/28 03:20:32;;;;;;;3.80;2.17;;;20.80;92.40;;;;;;5053725;28;20038;-84
2023/09/28 03:22:58;;;;;;;4.20;2.25;;;20.80;92.50;;;;;;5036155;28;20424;-84
2023/09/28 03:25:23;;;;;;;2.75;2.30;;;20.80;92.80;;;;;;5053399;28;20514;-85
2023/09/28 03:27:51;;;;;;;4.28;2.50;;;20.80;92.60;;;;;;5053792;28;20539;-85
2023/09/28 03:30:18;;;;;;;5.13;2.30;;;20.70;92.70;;;;;;5051828;28;20021;-85
2023/09/28 03:32:47;;;;;;;3.60;2.05;;;20.70;92.70;;;;;;5052586;28;20029;-86
2023/09/28 03:35:13;;;;;;;4.18;2.80;;;20.70;92.90;;;;;;5053697;28;20025;-85
2023/09/28 03:37:40;;;;;;;4.20;2.40;;;20.60;92.90;;;;;;5053716;28;20028;-84
2023/09/28 03:40:10;;;;;;;3.42;1.98;;;20.60;92.90;;;;;;5053511;28;20025;-84
2023/09/28 03:42:43;;;;;;;4.45;2.78;;;20.60;92.90;;;;;;5053451;28;20119;-84
2023/09/28 03:45:10;;;;;;;3.75;2.45;;;20.60;93.00;;;;;;5052676;28;20107;-84
2023/09/28 03:47:36;;;;;;;5.38;2.55;;;20.60;93.00;;;;;;5052923;28;20031;-83
2023/09/28 03:50:03;;;;;;;5.35;2.33;;;20.60;93.00;;;;;;5052697;28;20037;-84
2023/09/28 03:52:30;;;;;;;5.03;2.00;;;20.50;93.10;;;;;;5037647;28;20041;-84
2023/09/28 03:54:56;;;;;;;4.07;2.05;;;20.40;93.20;;;;;;5054774;28;20465;-85
2023/09/28 03:57:22;;;;;;;5.13;2.90;;;20.40;93.20;;;;;;5055087;28;20040;-84
2023/09/28 03:59:48;;;;;;;3.47;2.92;;;20.40;93.30;;;;;;5052803;28;20025;-84
2023/09/28 04:02:14;;;;;;;6.07;2.67;;;20.40;93.40;;;;;;5052389;28;20029;-84
2023/09/28 04:04:39;;;;;;;4.78;2.90;;;20.40;93.50;;;;;;5052050;28;20048;-85
2023/09/28 04:07:05;;;;;;;5.88;2.80;;;20.40;93.60;;;;;;5051920;28;20082;-84
2023/09/28 04:09:32;;;;;;;4.45;2.72;;;20.30;93.70;;;;;;5035731;28;20033;-85
2023/09/28 04:11:58;;;;;;;4.95;2.70;;;20.30;93.70;;;;;;5052044;28;20037;-84
2023/09/28 04:14:24;;;;;;;3.95;2.53;;;20.30;93.80;;;;;;5053009;28;20039;-86
2023/09/28 04:16:50;;;;;;;6.25;2.50;;;20.20;93.90;;;;;;5052720;28;20040;-85
2023/09/28 04:19:16;;;;;;;3.53;2.35;;;20.20;93.90;;;;;;5056987;28;20033;-85
2023/09/28 04:21:42;;;;;;;4.75;2.90;;;20.20;94.30;;;;;;5055620;28;20040;-84
2023/09/28 04:24:08;;;;;;;5.53;2.70;;;20.20;94.10;;;;;;5055761;28;20397;-85
2023/09/28 04:26:34;;;;;;;6.47;2.88;;;20.20;94.10;;;;;;5056942;28;20486;-85
2023/09/28 04:29:00;;;;;;;5.75;2.90;;;20.20;94.20;;;;;;5056989;28;20079;-85
2023/09/28 04:31:25;;;;;;;3.85;2.55;;;20.10;94.30;;;;;;5057370;28;20033;-85
2023/09/28 04:33:52;;;;;;;3.20;2.83;;;20.10;94.30;;;;;;5057793;28;20393;-84
2023/09/28 04:36:17;;;;;;;6.25;3.05;;;20.10;94.40;;;;;;5056870;28;20025;-83
2023/09/28 04:38:43;;;;;;;3.95;2.65;;;20.10;94.40;;;;;;5055820;28;20029;-83
2023/09/28 04:41:09;;;;;;;4.93;3.00;;;20.10;94.40;;;;;;5055644;28;20041;-82
2023/09/28 04:43:35;;;;;;;4.35;2.42;;;20.10;94.40;;;;;;5056862;28;20025;-83
2023/09/28 04:46:05;;;;;;;7.32;2.78;;;20.00;94.50;;;;;;5055744;28;20032;-85
2023/09/28 04:48:31;;;;;;;7.85;3.10;;;20.00;94.70;;;;;;5057425;28;20066;-84
2023/09/28 04:50:57;;;;;;;4.10;2.53;;;20.00;94.70;;;;;;5056387;28;20044;-83
2023/09/28 04:53:23;;;;;;;3.72;2.42;;;20.00;94.80;;;;;;5056458;28;20029;-83
2023/09/28 04:55:49;;;;;;;3.80;2.67;;;20.00;94.80;;;;;;5056277;28;20118;-84
2023/09/28 04:58:14;;;;;;;6.40;3.25;;;20.00;94.70;;;;;;5056351;28;20033;-83
2023/09/28 05:00:40;;;;;;;5.00;2.88;;;20.00;94.70;;;;;;5056217;28;20029;-84
2023/09/28 05:03:06;;;;;;;5.03;2.95;;;19.90;94.80;;;;;;5054856;28;20033;-83
2023/09/28 05:05:34;;;;;;;5.47;3.15;;;19.90;94.80;;;;;;5055111;28;20116;-83
2023/09/28 05:08:00;;;;;;;6.25;3.42;;;19.90;94.90;;;;;;5055488;28;20033;-84
2023/09/28 05:10:26;;;;;;;5.13;3.28;;;19.90;94.90;;;;;;5056790;28;20523;-86
2023/09/28 05:12:52;;;;;;;5.90;3.00;;;19.90;94.90;;;;;;5056220;28;20119;-85
2023/09/28 05:15:17;;;;;;;4.75;2.70;;;19.90;95.00;;;;;;5056569;28;20414;-84
2023/09/28 05:17:43;;;;;;;4.90;3.25;;;19.90;95.10;;;;;;5055527;28;20056;-84
2023/09/28 05:20:09;;;;;;;5.50;3.22;;;19.80;95.20;;;;;;5054843;28;20028;-85
2023/09/28 05:22:35;;;;;;;4.30;3.17;;;19.80;95.20;;;;;;5054899;28;20041;-84
2023/09/28 05:25:02;;;;;;;4.65;3.10;;;19.80;95.20;;;;;;5056079;28;20554;-84
2023/09/28 05:27:28;;;;;;;4.43;2.83;;;19.80;95.20;;;;;;5055852;28;20021;-84
2023/09/28 05:29:54;;;;;;;6.78;3.78;;;19.80;95.20;;;;;;5056229;28;20535;-85
2023/09/28 05:32:20;;;;;;;7.43;3.58;;;19.80;95.30;;;;;;5056195;28;20440;-84
2023/09/28 05:34:46;;;;;;;4.85;3.40;;;19.80;95.30;;;;;;5057741;28;20112;-84
2023/09/28 05:37:12;;;;;;;5.68;3.00;;;19.80;95.30;;;;;;5058557;28;20064;-84
2023/09/28 05:39:38;;;;;;;5.07;3.47;;;19.70;95.40;;;;;;5056989;28;20036;-84
2023/09/28 05:42:04;;;;;;;8.02;4.13;;;19.70;95.50;;;;;;5054937;28;20120;-85
2023/09/28 05:44:31;;;;;;;5.43;3.70;;;19.70;95.60;;;;;;5054398;28;20028;-83
2023/09/28 05:46:57;;;;;;;8.30;3.97;;;19.60;95.70;;;;;;5048621;28;20099;-87
2023/09/28 05:49:23;;;;;;;9.52;3.22;;;19.60;95.80;;;;;;5036511;28;20033;-86
2023/09/28 05:51:49;;;;;;;7.03;4.03;;;19.50;95.80;;;;;;5036087;28;20456;-85
2023/09/28 05:54:15;;;;;;;6.55;4.22;;;19.50;95.80;;;;;;5035735;28;20382;-83
2023/09/28 05:56:40;;;;;;;6.43;4.05;;;19.50;95.90;;;;;;5035487;28;20028;-83
2023/09/28 05:59:07;;;;;;;4.93;3.67;;;19.40;95.90;;;;;;5034157;28;20409;-84
2023/09/28 06:01:32;;;;;;;7.85;4.07;;;19.40;96.00;;;;;;5035535;28;20434;-83
2023/09/28 06:03:58;;;;;;;7.05;4.15;;;19.40;96.00;;;;;;5035944;28;20111;-84
2023/09/28 06:06:24;;;;;;;6.80;3.90;;;19.30;96.10;;;;;;5034859;28;20394;-84
2023/09/28 06:08:53;;;;;;;7.65;4.25;;;19.30;96.20;;;;;;5035500;28;20104;-83
2023/09/28 06:11:22;;;;;;;5.10;2.90;;;19.30;96.20;;;;;;5036268;28;20036;-85
2023/09/28 06:13:48;;;;;;;6.85;3.53;;;19.30;96.20;;;;;;5035712;28;20037;-83
2023/09/28 06:16:15;;;;;;;7.13;3.97;;;19.30;96.40;;;;;;5035021;28;20037;-83
2023/09/28 06:18:42;;;;;;;6.97;4.30;;;19.30;96.40;;;;;;5017762;28;20480;-82
2023/09/28 06:21:08;;;;;;;5.82;3.40;;;19.20;96.50;;;;;;5035203;28;20034;-80
2023/09/28 06:23:34;;;;;;;12.82;4.82;;;19.20;96.50;;;;;;5034656;28;20046;-82
2023/09/28 06:26:01;;;;;;;8.02;4.18;;;19.20;96.60;;;;;;5034182;28;20107;-79
2023/09/28 06:28:27;;;;;;;9.70;5.13;;;19.10;96.60;;;;;;5042884;28;20025;-80
2023/09/28 06:30:53;;;;;;;7.30;4.00;;;19.10;96.70;;;;;;5036860;28;20041;-80
2023/09/28 06:33:20;;;;;;;7.03;3.63;;;19.00;96.70;;;;;;5045177;28;20028;-84
2023/09/28 06:35:46;;;;;;;7.30;4.10;;;19.00;96.90;;;;;;5035191;28;20057;-84
2023/09/28 06:38:12;;;;;;;8.10;4.22;;;19.00;96.90;;;;;;5034865;28;20057;-82
2023/09/28 06:40:45;;;;;;;7.80;4.22;;;19.10;96.90;;;;;;5039275;28;20033;-84
2023/09/28 06:43:11;;;;;;;10.30;4.00;;;19.10;96.90;;;;;;5041993;28;20022;-85
2023/09/28 06:45:37;;;;;;;8.65;4.25;;;19.20;96.90;;;;;;5038365;28;20071;-83
2023/09/28 06:48:02;;;;;;;8.15;4.75;;;19.20;96.90;;;;;;5033630;28;20033;-81
2023/09/28 06:50:29;;;;;;;8.75;4.10;;;19.20;96.90;;;;;;5034322;28;20033;-82
2023/09/28 06:52:55;;;;;;;10.88;4.03;;;19.20;96.80;;;;;;5035267;28;20033;-80
2023/09/28 06:55:23;;;;;;;9.60;4.32;;;19.20;96.80;;;;;;5034634;28;20030;-82
2023/09/28 06:57:50;;;;;;;14.98;4.90;;;19.20;96.80;;;;;;5034104;28;20051;-80
2023/09/28 07:00:16;;;;;;;10.20;4.05;;;19.20;96.80;;;;;;5039796;28;20505;-84
2023/09/28 07:02:47;;;;;;;13.65;4.35;;;19.20;96.90;;;;;;5054446;28;20438;-80
2023/09/28 07:05:16;;;;;;;10.95;4.43;;;19.20;96.70;;;;;;5045446;28;20032;-78
2023/09/28 07:07:45;;;;;;;8.52;3.50;;;19.20;96.70;;;;;;5037310;28;20046;-82
2023/09/28 07:10:11;;;;;;;14.18;4.20;;;19.20;96.70;;;;;;5040029;28;20367;-82
2023/09/28 07:12:37;;;;;;;14.20;4.00;;;19.20;96.50;;;;;;5053015;28;20064;-80
2023/09/28 07:15:04;;;;;;;16.65;3.22;;;19.10;96.40;;;;;;5052433;28;20457;-80
2023/09/28 07:17:29;;;;;;;13.27;3.65;;;19.10;96.30;;;;;;5042809;28;20033;-80
2023/09/28 07:19:56;;;;;;;17.50;3.88;;;19.10;96.30;;;;;;5049622;28;20086;-81
2023/09/28 07:22:22;;;;;;;18.70;4.13;;;19.10;96.30;;;;;;5052490;28;20039;-82
2023/09/28 07:24:48;;;;;;;13.15;3.78;;;19.10;96.30;;;;;;5053094;28;20049;-85
2023/09/28 07:27:14;;;;;;;16.98;4.05;;;19.10;96.30;;;;;;5053642;28;20123;-83
2023/09/28 07:29:39;;;;;;;13.73;3.20;;;19.10;96.50;;;;;;5052523;28;20032;-83
2023/09/28 07:32:07;;;;;;;21.20;3.63;;;19.20;96.20;;;;;;5044602;28;20060;-82
2023/09/28 07:34:34;;;;;;;13.57;3.50;;;19.20;96.00;;;;;;5033746;28;20025;-80
2023/09/28 07:37:00;;;;;;;17.40;3.60;;;19.30;96.00;;;;;;5034014;28;20112;-80
2023/09/28 07:39:25;;;;;;;21.48;4.20;;;19.30;95.90;;;;;;5032428;28;20108;-82
2023/09/28 07:41:51;;;;;;;24.65;3.30;;;19.30;95.40;;;;;;5015795;28;20421;-82
2023/09/28 07:44:21;;;;;;;21.50;3.72;;;19.30;95.40;;;;;;5032324;28;20025;-79
2023/09/28 07:46:47;;;;;;;25.13;4.22;;;19.30;95.30;;;;;;5032231;28;20029;-79
2023/09/28 07:49:14;;;;;;;19.15;3.55;;;19.40;95.20;;;;;;5042713;28;20048;-80
2023/09/28 07:51:40;;;;;;;20.77;3.65;;;19.40;94.80;;;;;;5041001;28;20385;-81
2023/09/28 07:54:06;;;;;;;22.15;3.83;;;19.50;94.80;;;;;;5034546;28;20029;-81
2023/09/28 07:56:33;;;;;;;24.60;4.18;;;19.50;94.80;;;;;;5034070;28;20462;-82
2023/09/28 07:58:59;;;;;;;18.65;3.10;;;19.50;94.90;;;;;;5039442;28;20075;-81
2023/09/28 08:01:26;;;;;;;21.67;3.92;;;19.40;94.80;;;;;;5052978;28;20072;-81
2023/09/28 08:03:52;;;;;;;19.45;3.25;;;19.50;95.00;;;;;;5042336;28;20466;-81
2023/09/28 08:06:18;;;;;;;25.35;3.35;;;19.60;94.90;;;;;;5031995;28;20029;-77
2023/09/28 08:08:43;;;;;;;30.77;3.75;;;19.60;94.70;;;;;;5022146;28;20482;-82
2023/09/28 08:11:09;;;;;;;24.45;3.88;;;19.60;94.40;;;;;;5031990;28;20037;-82
2023/09/28 08:13:35;;;;;;;21.77;3.65;;;19.60;94.40;;;;;;5033147;28;20072;-81
2023/09/28 08:16:01;;;;;;;17.98;3.42;;;19.60;94.50;;;;;;5015517;28;20029;-81
2023/09/28 08:18:26;;;;;;;26.70;3.45;;;19.70;94.40;;;;;;5031345;28;20469;-82
2023/09/28 08:20:52;;;;;;;26.25;4.30;;;19.60;94.30;;;;;;5036702;28;20041;-80
2023/09/28 08:23:18;;;;;;;26.90;4.13;;;19.60;94.20;;;;;;5039504;28;20129;-81
2023/09/28 08:25:44;;;;;;;23.35;4.25;;;19.60;94.30;;;;;;5033240;28;20045;-86
2023/09/28 08:28:10;;;;;;;23.10;4.43;;;19.70;94.40;;;;;;5031999;28;20466;-83
2023/09/28 08:30:36;;;;;;;20.15;3.20;;;19.90;94.50;;;;;;5033164;28;20044;-86
2023/09/28 08:33:01;;;;;;;23.73;3.90;;;19.90;93.80;;;;;;5034709;28;20045;-82
2023/09/28 08:35:27;;;;;;;21.02;3.90;;;19.90;93.40;;;;;;5038176;28;20029;-88
2023/09/28 08:37:53;;;;;;;32.90;4.18;;;19.90;93.50;;;;;;5035298;28;20030;-88
2023/09/28 08:40:20;;;;;;;24.13;4.32;;;19.90;93.60;;;;;;5034871;28;20371;-87
2023/09/28 08:42:47;;;;;;;20.05;3.55;;;20.00;93.70;;;;;;5032902;28;20037;-85
2023/09/28 08:45:15;;;;;;;25.33;4.13;;;20.00;93.40;;;;;;5028875;28;20017;-82
2023/09/28 08:47:49;;;;;;;21.17;3.78;;;20.10;93.50;;;;;;5031578;28;20481;-78
2023/09/28 08:50:33;;;;;;;22.60;3.25;;;20.10;93.30;;;;;;5032407;28;20428;-80
2023/09/28 08:52:59;;;;;;;17.27;3.83;;;20.20;93.40;;;;;;5031623;28;20044;-80
2023/09/28 08:55:27;;;;;;;21.85;3.97;;;20.30;93.40;;;;;;5031522;28;20206;-82
2023/09/28 08:57:54;;;;;;;23.63;4.18;;;20.40;93.00;;;;;;5031315;28;20037;-81
2023/09/28 09:00:23;;;;;;;22.48;3.97;;;20.30;92.40;;;;;;5030519;28;20083;-77
2023/09/28 09:02:51;;;;;;;20.55;3.58;;;20.30;92.60;;;;;;5031088;28;20099;-82
2023/09/28 09:05:17;;;;;;;18.02;3.13;;;20.40;92.60;;;;;;5034434;28;20021;-85
2023/09/28 09:07:43;;;;;;;21.50;4.45;;;20.40;92.40;;;;;;5034808;28;20048;-80
2023/09/28 09:10:17;;;;;;;17.08;3.35;;;20.40;92.40;;;;;;5033090;28;20063;-83
2023/09/28 09:12:42;;;;;;;29.80;3.47;;;20.50;92.50;;;;;;5034812;28;20037;-82
2023/09/28 09:15:09;;;;;;;22.73;4.10;;;20.40;91.80;;;;;;5033260;28;20339;-78
2023/09/28 09:17:35;;;;;;;17.65;3.65;;;20.40;91.80;;;;;;5034338;28;20056;-77
2023/09/28 09:20:05;;;;;;;20.10;3.13;;;20.40;91.70;;;;;;5033353;28;20029;-77
2023/09/28 09:22:30;;;;;;;23.67;3.60;;;20.50;91.60;;;;;;5032860;28;20041;-77
2023/09/28 09:25:00;;;;;;;18.23;3.45;;;20.50;91.60;;;;;;5034202;28;20052;-76
2023/09/28 09:27:30;;;;;;;16.70;2.60;;;20.50;91.70;;;;;;5034253;28;20040;-76
2023/09/28 09:29:58;;;;;;;16.73;2.80;;;20.50;91.80;;;;;;5034309;28;20367;-76
2023/09/28 09:32:27;;;;;;;19.70;3.03;;;20.60;91.60;;;;;;5034059;28;20033;-78
2023/09/28 09:34:54;;;;;;;23.55;4.05;;;20.50;91.00;;;;;;5034356;28;20092;-78
2023/09/28 09:37:19;;;;;;;16.23;3.20;;;20.50;90.80;;;;;;5033299;28;20037;-77
2023/09/28 09:39:46;;;;;;;15.73;3.25;;;20.60;91.10;;;;;;5033193;28;20041;-79
2023/09/28 09:42:11;;;;;;;22.63;3.75;;;20.70;91.30;;;;;;5033833;28;20034;-78
2023/09/28 09:44:38;;;;;;;18.67;3.40;;;20.70;90.70;;;;;;5032711;28;20036;-78
2023/09/28 09:47:03;;;;;;;23.08;3.45;;;20.80;90.80;;;;;;5016012;28;20044;-80
2023/09/28 09:49:29;;;;;;;18.45;2.95;;;20.90;90.90;;;;;;5033506;28;20033;-78
2023/09/28 09:51:59;;;;;;;17.65;3.55;;;21.00;90.70;;;;;;5034214;28;20033;-82
2023/09/28 09:54:24;;;;;;;17.83;3.13;;;21.00;90.40;;;;;;5034879;28;20049;-79
2023/09/28 09:56:52;;;;;;;17.00;3.00;;;21.10;90.60;;;;;;5032183;28;20079;-81
2023/09/28 09:59:22;;;;;;;19.38;3.17;;;21.20;90.60;;;;;;5032451;28;20033;-80
2023/09/28 10:01:49;;;;;;;17.52;2.50;;;21.20;90.10;;;;;;5033908;28;20087;-82
2023/09/28 10:04:16;;;;;;;15.27;3.40;;;21.30;90.30;;;;;;5034066;28;20025;-82
2023/09/28 10:06:51;;;;;;;14.40;3.10;;;21.30;90.40;;;;;;5033270;28;20048;-81
2023/09/28 10:09:18;;;;;;;21.08;3.38;;;21.50;90.40;;;;;;5032016;28;20041;-81
2023/09/28 10:11:46;;;;;;;22.80;3.40;;;21.60;90.00;;;;;;5032450;28;20038;-81
2023/09/28 10:14:15;;;;;;;20.30;3.63;;;21.70;89.60;;;;;;5032882;28;20095;-82
2023/09/28 10:16:42;;;;;;;22.23;3.13;;;21.80;89.00;;;;;;5034098;28;20029;-83
2023/09/28 10:19:09;;;;;;;19.98;3.15;;;21.80;89.20;;;;;;5033651;28;20478;-82
2023/09/28 10:21:39;;;;;;;17.77;3.17;;;21.90;88.80;;;;;;5033215;28;20083;-81
2023/09/28 10:24:09;;;;;;;21.05;2.97;;;21.90;88.00;;;;;;5031482;28;20025;-81
2023/09/28 10:26:35;;;;;;;17.80;3.40;;;21.80;87.90;;;;;;5036652;28;20497;-84
2023/09/28 10:29:06;;;;;;;21.65;3.28;;;21.90;88.10;;;;;;5033355;28;20026;-83
2023/09/28 10:31:40;;;;;;;17.42;2.90;;;21.90;88.90;;;;;;5030972;28;20639;-77
2023/09/28 10:34:07;;;;;;;19.67;3.30;;;21.90;88.70;;;;;;5031436;28;20079;-81
2023/09/28 10:36:35;;;;;;;15.02;2.95;;;21.90;89.60;;;;;;5033244;28;20041;-85
2023/09/28 10:39:14;;;;;;;16.48;3.35;;;22.00;89.70;;;;;;5031064;28;20033;-83
2023/09/28 10:41:51;;;;;;;16.88;3.40;;;22.10;88.20;;;;;;5042808;28;20096;-84
2023/09/28 10:44:19;;;;;;;20.27;2.88;;;22.00;88.10;;;;;;5032577;28;20112;-84
2023/09/28 10:46:50;;;;;;;19.38;3.55;;;22.00;88.10;;;;;;5030874;28;20438;-84
2023/09/28 10:49:27;;;;;;;15.18;3.28;;;22.00;87.90;;;;;;5033293;28;20029;-81
2023/09/28 10:51:55;;;;;;;22.05;3.35;;;22.00;88.10;;;;;;5033386;28;20037;-83
2023/09/28 10:54:22;;;;;;;20.33;3.50;;;22.00;88.30;;;;;;5032889;28;20037;-80
2023/09/28 10:56:48;;;;;;;16.55;2.97;;;22.10;87.00;;;;;;5031937;28;20366;-83
2023/09/28 10:59:15;;;;;;;25.58;3.58;;;22.10;86.00;;;;;;5032781;28;20481;-82
2023/09/28 11:01:45;;;;;;;20.85;3.30;;;22.00;86.80;;;;;;5032558;28;20160;-83
2023/09/28 11:04:12;;;;;;;20.50;2.92;;;21.90;86.80;;;;;;5031354;28;20029;-82
2023/09/28 11:06:38;;;;;;;18.10;3.45;;;21.80;87.40;;;;;;5031468;28;20117;-82
2023/09/28 11:09:07;;;;;;;19.85;3.85;;;21.80;87.90;;;;;;5032099;28;20465;-82
2023/09/28 11:11:33;;;;;;;20.08;3.72;;;21.80;86.90;;;;;;5031018;28;20079;-82
2023/09/28 11:13:59;;;;;;;19.88;3.70;;;21.80;87.40;;;;;;5032186;28;20033;-83
2023/09/28 11:16:26;;;;;;;17.60;3.03;;;21.80;87.60;;;;;;5032039;28;20025;-81
2023/09/28 11:18:56;;;;;;;21.80;3.42;;;21.80;87.20;;;;;;5030361;28;20116;-81
2023/09/28 11:21:22;;;;;;;17.60;3.88;;;21.80;87.60;;;;;;5032608;28;20075;-81
2023/09/28 11:23:51;;;;;;;19.02;3.25;;;21.90;87.70;;;;;;5031319;28;20049;-83
2023/09/28 11:26:18;;;;;;;15.65;2.83;;;22.00;87.20;;;;;;5048732;28;20554;-82
2023/09/28 11:28:44;;;;;;;19.02;3.78;;;21.90;85.90;;;;;;5031866;28;20036;-81
2023/09/28 11:31:12;;;;;;;18.38;3.47;;;21.90;86.70;;;;;;5033883;28;20092;-83
2023/09/28 11:33:39;;;;;;;25.35;3.67;;;21.90;87.10;;;;;;5032427;28;20045;-82
2023/09/28 11:36:11;;;;;;;16.58;3.35;;;21.90;86.50;;;;;;5032745;28;20076;-83
2023/09/28 11:38:39;;;;;;;;;;;21.90;86.50;;;;;;5033398;28;20528;-82
2023/09/28 11:41:04;;;;;;;20.98;2.92;;;21.90;86.50;;;;;;5034421;28;19913;-83
2023/09/28 11:43:34;;;;;;;16.40;3.28;;;21.90;86.60;;;;;;5034801;28;20036;-83
2023/09/28 11:46:00;;;;;;;19.45;2.83;;;21.90;86.70;;;;;;5033012;28;20029;-83
2023/09/28 11:48:25;;;;;;;17.88;3.38;;;21.90;86.90;;;;;;5033736;28;20331;-82
2023/09/28 11:50:52;;;;;;;17.92;2.85;;;21.90;86.50;;;;;;5032121;28;20036;-83
2023/09/28 11:53:18;;;;;;;21.05;3.33;;;21.90;86.50;;;;;;5032371;28;20025;-82
2023/09/28 11:55:47;;;;;;;23.70;3.97;;;21.80;86.90;;;;;;5032246;28;20040;-82
2023/09/28 11:58:20;;;;;;;18.17;3.17;;;21.90;87.50;;;;;;5033235;28;20022;-81
2023/09/28 12:00:46;;;;;;;;;;;21.90;87.60;;;;;;5016132;28;20064;-82
2023/09/28 12:03:13;;;;;;;21.52;3.15;;;21.90;87.00;;;;;;5032504;28;19931;-82
2023/09/28 12:05:40;;;;;;;15.63;2.90;;;21.90;87.30;;;;;;5031656;28;20032;-81
2023/09/28 12:08:07;;;;;;;21.65;3.40;;;22.00;88.20;;;;;;5033097;28;20061;-81
2023/09/28 12:10:32;;;;;;;19.00;3.60;;;22.10;87.10;;;;;;5033167;28;20033;-82
2023/09/28 12:12:58;;;;;;;21.83;3.45;;;22.00;87.10;;;;;;5031473;28;20034;-81
2023/09/28 12:15:24;;;;;;;14.32;2.97;;;22.00;86.60;;;;;;5033161;28;20120;-81
2023/09/28 12:17:50;;;;;;;18.05;2.75;;;22.00;86.30;;;;;;5033113;28;20034;-82
2023/09/28 12:20:15;;;;;;;18.23;3.47;;;22.00;86.60;;;;;;5031503;28;20436;-82
2023/09/28 12:22:42;;;;;;;16.88;3.13;;;21.90;87.10;;;;;;5032039;28;20407;-82
2023/09/28 12:25:09;;;;;;;18.23;3.15;;;21.90;87.00;;;;;;5031664;28;20062;-82
2023/09/28 12:27:36;;;;;;;16.00;2.70;;;21.90;87.10;;;;;;5031811;28;20033;-83
2023/09/28 12:30:02;;;;;;;13.05;2.38;;;21.90;86.60;;;;;;5033176;28;20033;-83
2023/09/28 12:32:29;;;;;;;15.93;2.78;;;21.90;86.70;;;;;;5033262;28;20037;-82
2023/09/28 12:34:56;;;;;;;15.57;3.47;;;21.90;86.80;;;;;;5031786;28;20048;-82
2023/09/28 12:37:21;;;;;;;14.00;2.53;;;21.90;86.50;;;;;;5031736;28;20058;-81
2023/09/28 12:39:48;;;;;;;19.00;2.78;;;21.90;87.30;;;;;;5036735;28;20029;-80
2023/09/28 12:42:15;;;;;;;12.82;2.50;;;22.00;87.50;;;;;;5036907;28;20041;-81